This is the latest recevied weather packets stored in our database for station/object KC4GS-13. If no packets are shown the sender has not sent any weather packets the latest 1 day(s).
| Time | Temp. | Humidity | Pressure | Rain* | Wind** | Luminosity | Snow |
|---|---|---|---|---|---|---|---|
| 1778013061 | 28.33° C | 41% | 1015.3 hPa | 0 mm | 0 m/s | 434 W/m² | - |
| 1778012757 | 28.89° C | 40% | 1015.4 hPa | 0 mm | 0.45 m/s, 117° | 232 W/m² | - |
| 1778012453 | 28.33° C | 41% | 1015.4 hPa | 0 mm | 0.89 m/s, 132° | 538 W/m² | - |
| 1778012150 | 28.89° C | 39% | 1015.3 hPa | 0 mm | 0 m/s | 280 W/m² | - |
| 1778011848 | 28.89° C | 40% | 1015.5 hPa | 0 mm | 0 m/s | 583 W/m² | - |
| 1778011545 | 29.44° C | 40% | 1015.4 hPa | 0 mm | 0.45 m/s, 165° | 477 W/m² | - |
| 1778011242 | 28.33° C | 42% | 1015.5 hPa | 0 mm | 0 m/s | 182 W/m² | - |
| 1778010938 | 28.89° C | 40% | 1015.6 hPa | 0 mm | 0.45 m/s, 137° | 204 W/m² | - |
| 1778010636 | 29.44° C | 39% | 1015.7 hPa | 0 mm | 0 m/s | 356 W/m² | - |
| 1778010333 | 29.44° C | 39% | 1015.7 hPa | 0 mm | 0 m/s | 555 W/m² | - |
| 1778010028 | 28.89° C | 41% | 1015.7 hPa | 0 mm | 0.45 m/s, 116° | 791 W/m² | - |
| 1778009726 | 30° C | 38% | 1016 hPa | 0 mm | 0 m/s | 143 W/m² | - |
| 1778009423 | 30° C | 37% | 1016 hPa | 0 mm | 0 m/s | 775 W/m² | - |
| 1778009121 | 30° C | 38% | 1016 hPa | 0 mm | 0 m/s | 764 W/m² | - |
| 1778008819 | 28.89° C | 40% | 1016.4 hPa | 0 mm | 0 m/s | 797 W/m² | - |
| 1778008517 | 27.78° C | 42% | 1016.4 hPa | 0 mm | 0.45 m/s, 121° | 177 W/m² | - |
| 1778008214 | 28.33° C | 40% | 1016.3 hPa | 0 mm | 0.45 m/s, 114° | 547 W/m² | - |
| 1778007909 | 28.89° C | 41% | 1016.5 hPa | 0 mm | 0 m/s | 519 W/m² | - |
| 1778007605 | 29.44° C | 38% | 1016.5 hPa | 0 mm | 0 m/s | 626 W/m² | - |
| 1778007302 | 28.89° C | 39% | 1016.5 hPa | 0 mm | 0 m/s | 822 W/m² | - |
| 1778006998 | 28.89° C | 41% | 1016.7 hPa | 0 mm | 0.45 m/s, 122° | 655 W/m² | - |
| 1778006695 | 28.33° C | 42% | 1016.8 hPa | 0 mm | 0.45 m/s, 114° | 695 W/m² | - |
| 1778006391 | 28.89° C | 39% | 1017 hPa | 0 mm | 0.45 m/s, 130° | 182 W/m² | - |
| 1778006089 | 28.33° C | 42% | 1016.9 hPa | 0 mm | 0.45 m/s, 132° | 769 W/m² | - |
| 1778005785 | 28.89° C | 41% | 1016.9 hPa | 0 mm | 0 m/s | 234 W/m² | - |
* Rain latest hour (hover to see other rain measurements)
** Current wind speed in m/s (hover to see current wind gust speed)